Terminal Aerodrome Forecast
Issued by NWS Knoxville/Tri Cities, TN

Home | Current Version | Previous Version | Text Only | Print | Product List | Glossary On
Versions: 1 2 3 4 5 6 7 8 9 10 11 12 13 14 15 16 17 18 19 20 21 22 23 24 25 26 27 28 29 30 31 32 33 34 35 36 37 38 39 40 41 42 43 44 45 46 47 48 49 50
000
FTUS44 KMRX 181400 AAA
TAFCHA
TAF AMD
KCHA 181400Z 1814/1912 00000KT 3SM BR BKN003 BKN010
      TEMPO 1814/1816 6SM BR SCT015
     FM181600 05003KT P6SM SCT025 BKN150
     FM182000 11009KT P6SM VCSH BKN040
     FM190600 14007KT 4SM -SHRA OVC035
     FM190800 16007KT 2SM RA OVC015=

USA.gov is the U.S. government's official web portal to all federal, state and local government web resources and services.